createdAt,value
2019-06-20T00:02:15.150Z,100270.64
2019-06-20T00:04:43.970Z,100465.75
2019-06-20T00:07:12.713Z,100470.42
2019-06-20T00:09:41.468Z,100473.22
2019-06-20T00:12:10.253Z,100475.50
2019-06-20T00:14:39.045Z,100479.49
2019-06-20T00:17:07.867Z,100471.02
2019-06-20T00:19:36.660Z,100455.97
2019-06-20T00:22:05.438Z,100463.17
2019-06-20T00:24:34.305Z,100464.44
2019-06-20T00:27:03.052Z,100461.06
2019-06-20T00:29:31.851Z,100452.03
2019-06-20T00:32:00.751Z,100452.27
2019-06-20T00:34:29.597Z,100452.03
2019-06-20T00:36:58.337Z,100449.54
2019-06-20T00:39:27.117Z,100457.02
2019-06-20T00:41:55.882Z,100464.53
2019-06-20T00:44:24.677Z,100467.16
2019-06-20T00:46:53.418Z,100463.38
2019-06-20T00:49:22.186Z,100455.32
2019-06-20T00:51:51.070Z,100458.89
2019-06-20T00:54:19.863Z,100462.87
2019-06-20T00:56:48.606Z,100471.77
2019-06-20T00:59:17.365Z,100473.05
2019-06-20T01:01:46.099Z,100470.31
2019-06-20T01:04:14.915Z,100475.40
2019-06-20T01:06:43.670Z,100475.66
2019-06-20T01:09:12.461Z,100476.16
2019-06-20T01:11:41.229Z,100481.27
2019-06-20T01:14:10.009Z,100482.84
2019-06-20T01:16:38.750Z,100483.59
2019-06-20T01:19:07.518Z,100489.00
2019-06-20T01:21:36.272Z,100479.09
2019-06-20T01:24:05.377Z,100482.12
2019-06-20T01:26:34.118Z,100467.35
2019-06-20T01:29:02.851Z,100470.58
2019-06-20T01:31:31.653Z,100472.61
2019-06-20T01:34:00.529Z,100467.98
2019-06-20T01:36:29.269Z,100464.15
2019-06-20T01:38:58.025Z,100468.05
2019-06-20T01:41:26.799Z,100467.49
2019-06-20T01:43:55.560Z,100463.19
2019-06-20T01:46:24.319Z,100469.27
2019-06-20T01:48:53.059Z,100463.34
2019-06-20T01:51:21.866Z,100473.02
2019-06-20T01:53:50.675Z,100477.78
2019-06-20T01:56:19.408Z,100480.05
2019-06-20T01:58:48.213Z,100481.47
2019-06-20T02:01:17.197Z,100480.77
2019-06-20T02:03:46.012Z,100484.87
2019-06-20T02:06:14.743Z,100488.75
2019-06-20T02:08:43.629Z,100494.27
2019-06-20T02:11:12.536Z,100482.94
2019-06-20T02:13:41.337Z,100489.91
2019-06-20T02:16:10.171Z,100490.17
2019-06-20T02:18:39.220Z,100492.30
2019-06-20T02:21:08.139Z,100489.02
2019-06-20T02:23:36.890Z,100494.42
2019-06-20T02:26:06.340Z,100494.69
2019-06-20T02:28:35.040Z,100501.95
2019-06-20T02:31:03.767Z,100498.67
2019-06-20T02:33:32.545Z,100498.82
2019-06-20T02:36:01.432Z,100505.39
2019-06-20T02:38:30.158Z,100516.90
2019-06-20T02:40:58.910Z,100512.83
2019-06-20T02:43:28.143Z,100512.94
2019-06-20T02:45:56.886Z,100523.05
2019-06-20T02:48:25.614Z,100507.97
2019-06-20T02:50:54.467Z,100512.88
2019-06-20T02:53:23.192Z,100514.36
2019-06-20T02:55:51.968Z,100514.36
2019-06-20T02:58:20.714Z,100518.00
2019-06-20T03:00:58.253Z,100523.12
2019-06-20T03:03:28.609Z,100518.04
2019-06-20T03:05:59.497Z,100526.23
2019-06-20T03:08:28.500Z,100530.94
2019-06-20T03:10:57.254Z,100537.01
2019-06-20T03:13:26.308Z,100539.40
2019-06-20T03:15:55.081Z,100535.85
2019-06-20T03:18:23.859Z,100545.97
2019-06-20T03:20:52.634Z,100543.25
2019-06-20T03:23:21.378Z,100549.11
2019-06-20T03:25:50.192Z,100553.50
2019-06-20T03:28:18.940Z,100550.78
2019-06-20T03:30:47.714Z,100554.33
2019-06-20T03:33:16.584Z,100555.80
2019-06-20T03:35:45.322Z,100562.96
2019-06-20T03:38:14.107Z,100560.23
2019-06-20T03:40:43.032Z,100559.23
2019-06-20T03:43:11.766Z,100566.83
2019-06-20T03:45:40.498Z,100567.27
2019-06-20T03:48:09.259Z,100569.30
2019-06-20T03:50:38.022Z,100570.98
2019-06-20T03:53:06.755Z,100572.84
2019-06-20T03:55:35.579Z,100579.73
2019-06-20T03:58:05.858Z,100586.36
2019-06-20T04:00:36.296Z,100594.21
2019-06-20T04:03:06.013Z,100595.30
2019-06-20T04:05:35.376Z,100596.52
2019-06-20T04:08:04.164Z,100596.52
2019-06-20T04:10:36.859Z,100604.54
2019-06-20T04:13:07.715Z,100603.11
2019-06-20T04:15:36.192Z,100600.73
2019-06-20T04:18:05.005Z,100600.23
2019-06-20T04:20:35.253Z,100607.37
2019-06-20T04:23:05.060Z,100615.30
2019-06-20T04:25:33.883Z,100582.11
2019-06-20T04:28:02.701Z,100612.68
2019-06-20T04:30:31.463Z,100617.06
2019-06-20T04:33:00.293Z,100618.81
2019-06-20T04:35:29.327Z,100625.93
2019-06-20T04:37:58.147Z,100622.59
2019-06-20T04:40:27.490Z,100625.93
2019-06-20T04:42:56.380Z,100633.06
2019-06-20T04:45:35.025Z,100633.06
2019-06-20T04:47:57.928Z,100635.20
2019-06-20T04:50:26.658Z,100639.80
2019-06-20T04:52:55.430Z,100644.16
2019-06-20T04:55:24.453Z,100642.39
2019-06-20T04:57:53.380Z,100642.23
2019-06-20T05:00:22.167Z,100647.52
2019-06-20T05:02:50.913Z,100644.08
2019-06-20T05:05:19.700Z,100652.86
2019-06-20T05:07:48.497Z,100653.20
2019-06-20T05:10:17.367Z,100658.59
2019-06-20T05:12:51.547Z,100660.30
2019-06-20T05:15:20.492Z,100662.89
2019-06-20T05:17:49.500Z,100660.38
2019-06-20T05:20:18.538Z,100664.91
2019-06-20T05:22:47.482Z,100662.97
2019-06-20T05:25:16.732Z,100664.39
2019-06-20T05:27:46.140Z,100665.97
2019-06-20T05:30:15.527Z,100673.31
2019-06-20T05:32:44.405Z,100675.06
2019-06-20T05:35:14.058Z,100673.70
2019-06-20T05:37:43.304Z,100674.30
2019-06-20T05:40:12.940Z,100675.44
2019-06-20T05:42:42.123Z,100682.55
2019-06-20T05:45:13.970Z,100683.42
2019-06-20T05:47:43.855Z,100676.88
2019-06-20T05:50:15.686Z,100679.77
2019-06-20T05:52:44.814Z,100682.05
2019-06-20T05:55:13.975Z,100681.77
2019-06-20T05:57:43.198Z,100683.24
2019-06-20T06:00:14.232Z,100691.70
2019-06-20T06:02:43.158Z,100699.91
2019-06-20T06:05:12.921Z,100701.61
2019-06-20T06:07:44.246Z,100705.50
2019-06-20T06:10:14.157Z,100711.89
2019-06-20T06:12:43.204Z,100711.23
2019-06-20T06:15:12.835Z,100709.16
2019-06-20T06:17:42.099Z,100708.84
2019-06-20T06:20:13.104Z,100712.33
2019-06-20T06:22:44.649Z,100717.75
2019-06-20T06:25:13.912Z,100725.90
2019-06-20T06:27:43.039Z,100721.35
2019-06-20T06:30:13.690Z,100722.16
2019-06-20T06:32:42.774Z,100721.09
2019-06-20T06:35:12.335Z,100721.64
2019-06-20T06:37:41.498Z,100725.40
2019-06-20T06:40:13.355Z,100719.27
2019-06-20T06:42:42.282Z,100715.59
2019-06-20T06:45:14.382Z,100726.44
2019-06-20T06:47:43.715Z,100728.72
2019-06-20T06:50:14.232Z,100732.66
2019-06-20T06:52:46.434Z,100730.00
2019-06-20T06:55:15.893Z,100726.36
2019-06-20T06:57:45.117Z,100725.47
2019-06-20T07:00:16.877Z,100726.54
2019-06-20T07:02:45.727Z,100730.53
2019-06-20T07:05:14.832Z,100733.91
2019-06-20T07:07:43.877Z,100728.63
2019-06-20T07:10:13.414Z,100731.55
2019-06-20T07:12:42.475Z,100745.08
2019-06-20T07:15:13.714Z,100741.11
2019-06-20T07:17:42.585Z,100744.08
2019-06-20T07:20:15.275Z,100748.10
2019-06-20T07:22:43.784Z,100748.02
2019-06-20T07:25:13.008Z,100748.16
2019-06-20T07:27:42.516Z,100750.67
2019-06-20T07:30:12.889Z,100750.13
2019-06-20T07:32:42.202Z,100746.84
2019-06-20T07:35:11.691Z,100753.38
2019-06-20T07:37:40.830Z,100742.14
2019-06-20T07:40:11.816Z,100747.91
2019-06-20T07:42:41.199Z,100739.31
2019-06-20T07:45:11.970Z,100736.22
2019-06-20T07:47:41.125Z,100742.37
2019-06-20T07:50:12.387Z,100738.97
2019-06-20T07:52:41.420Z,100740.23
2019-06-20T07:55:10.917Z,100734.05
2019-06-20T07:57:39.920Z,100738.21
2019-06-20T08:00:11.191Z,100740.62
2019-06-20T08:02:40.030Z,100738.53
2019-06-20T08:05:09.016Z,100739.13
2019-06-20T08:07:38.006Z,100745.96
2019-06-20T08:10:15.619Z,100744.58
2019-06-20T08:12:44.687Z,100742.64
2019-06-20T08:15:15.992Z,100740.23
2019-06-20T08:17:45.378Z,100748.23
2019-06-20T08:20:15.530Z,100746.39
2019-06-20T08:22:44.662Z,100752.55
2019-06-20T08:25:13.916Z,100749.43
2019-06-20T08:27:53.141Z,100748.87
2019-06-20T08:30:30.848Z,100759.89
2019-06-20T08:33:03.565Z,100755.27
2019-06-20T08:35:32.238Z,100761.11
2019-06-20T08:38:03.598Z,100755.34
2019-06-20T08:40:42.106Z,100765.55
2019-06-20T08:43:11.054Z,100772.02
2019-06-20T08:45:42.548Z,100768.64
2019-06-20T08:48:11.763Z,100771.30
2019-06-20T08:50:42.419Z,100773.00
2019-06-20T08:53:11.663Z,100778.88
2019-06-20T08:55:40.521Z,100777.75
2019-06-20T08:58:09.439Z,100777.92
2019-06-20T09:00:40.833Z,100776.31
2019-06-20T09:03:09.939Z,100786.09
2019-06-20T09:05:38.934Z,100789.66
2019-06-20T09:08:11.360Z,100782.09
2019-06-20T09:10:42.703Z,100783.94
2019-06-20T09:13:13.283Z,100791.27
2019-06-20T09:15:43.815Z,100789.87
2019-06-20T09:18:12.719Z,100783.73
2019-06-20T09:20:41.927Z,100782.02
2019-06-20T09:23:10.914Z,100786.48
2019-06-20T09:25:40.033Z,100786.91
2019-06-20T09:28:09.096Z,100786.24
2019-06-20T09:30:38.909Z,100786.98
2019-06-20T09:33:10.058Z,100784.30
2019-06-20T09:35:38.873Z,100791.47
2019-06-20T09:38:08.164Z,100791.16
2019-06-20T09:40:37.120Z,100790.44
2019-06-20T09:43:06.296Z,100790.70
2019-06-20T09:45:35.295Z,100792.87
2019-06-20T09:48:07.386Z,100789.17
2019-06-20T09:50:37.901Z,100760.17
2019-06-20T09:53:06.893Z,100800.55
2019-06-20T09:55:36.329Z,100796.02
2019-06-20T09:58:06.371Z,100800.52
2019-06-20T10:00:36.102Z,100808.47
2019-06-20T10:03:06.539Z,100803.95
2019-06-20T10:05:37.684Z,100757.17
2019-06-20T10:08:06.690Z,100801.11
2019-06-20T10:10:36.312Z,100800.73
2019-06-20T10:13:05.197Z,100797.88
2019-06-20T10:15:37.400Z,100792.26
2019-06-20T10:18:06.914Z,100802.80
2019-06-20T10:20:38.641Z,100800.58
2019-06-20T10:23:09.389Z,100798.27
2019-06-20T10:25:39.269Z,100800.41
2019-06-20T10:28:08.430Z,100787.75
2019-06-20T10:30:39.146Z,100798.09
2019-06-20T10:33:08.054Z,100796.89
2019-06-20T10:35:37.173Z,100802.05
2019-06-20T10:38:06.158Z,100800.49
2019-06-20T10:40:34.986Z,100810.88
2019-06-20T10:43:05.514Z,100804.94
2019-06-20T10:45:39.430Z,100805.34
2019-06-20T10:48:08.637Z,100811.38
2019-06-20T10:50:37.663Z,100816.25
2019-06-20T10:53:06.675Z,100823.35
2019-06-20T10:55:36.201Z,100822.53
2019-06-20T10:58:06.277Z,100821.52
2019-06-20T11:00:36.033Z,100842.91
2019-06-20T11:03:06.205Z,100822.31
2019-06-20T11:05:35.912Z,100777.61
2019-06-20T11:08:07.062Z,100812.04
2019-06-20T11:10:38.651Z,100818.25
2019-06-20T11:13:08.687Z,100816.66
2019-06-20T11:15:38.956Z,100824.72
2019-06-20T11:18:08.250Z,100823.19
2019-06-20T11:20:37.817Z,100832.05
2019-06-20T11:23:07.958Z,100830.89
2019-06-20T11:25:38.340Z,100827.63
2019-06-20T11:28:07.766Z,100827.94
2019-06-20T11:30:53.521Z,100830.42
2019-06-20T11:33:08.916Z,100830.00
2019-06-20T11:35:39.225Z,100834.05
2019-06-20T11:38:08.811Z,100838.21
2019-06-20T11:40:38.561Z,100838.81
2019-06-20T11:43:08.754Z,100840.20
2019-06-20T11:45:38.913Z,100842.17
2019-06-20T11:48:08.877Z,100843.84
2019-06-20T11:50:38.220Z,100846.48
2019-06-20T11:53:07.220Z,100852.83
2019-06-20T11:55:37.052Z,100856.17
2019-06-20T11:58:06.167Z,100857.64
2019-06-20T12:00:40.781Z,100851.22
2019-06-20T12:03:09.664Z,100857.14
2019-06-20T12:05:39.815Z,100860.66
2019-06-20T12:08:09.329Z,100862.80
2019-06-20T12:10:39.274Z,100858.81
2019-06-20T12:13:08.506Z,100867.21
2019-06-20T12:15:39.396Z,100866.52
2019-06-20T12:18:10.400Z,100862.84
2019-06-20T12:20:51.221Z,100865.03
2019-06-20T12:23:31.406Z,100867.72
2019-06-20T12:26:00.442Z,100866.99
2019-06-20T12:28:30.271Z,100864.30
2019-06-20T12:31:15.859Z,100863.75
2019-06-20T12:33:39.690Z,100865.84
2019-06-20T12:36:12.360Z,100861.83
2019-06-20T12:38:44.200Z,100863.42
2019-06-20T12:41:13.321Z,100864.91
2019-06-20T12:43:42.351Z,100862.52
2019-06-20T12:46:11.549Z,100857.55
2019-06-20T12:48:41.261Z,100859.75
2019-06-20T12:51:11.152Z,100852.95
2019-06-20T12:53:40.460Z,100853.97
2019-06-20T12:56:10.985Z,100849.22
2019-06-20T12:58:41.074Z,100850.81
2019-06-20T13:01:11.151Z,100850.48
2019-06-20T13:03:40.524Z,100851.96
2019-06-20T13:06:09.687Z,100840.14
2019-06-20T13:08:39.027Z,100849.63
2019-06-20T13:11:09.382Z,100848.76
2019-06-20T13:13:39.379Z,100846.05
2019-06-20T13:16:08.795Z,100841.16
2019-06-20T13:18:37.560Z,100843.55
2019-06-20T13:21:06.428Z,100843.08
2019-06-20T13:23:35.373Z,100849.19
2019-06-20T13:26:04.716Z,100841.32
2019-06-20T13:28:33.721Z,100842.27
2019-06-20T13:31:04.203Z,100844.61
2019-06-20T13:33:33.737Z,100840.91
2019-06-20T13:36:02.956Z,100847.97
2019-06-20T13:38:32.279Z,100842.11
2019-06-20T13:41:01.215Z,100838.59
2019-06-20T13:43:31.525Z,100840.18
2019-06-20T13:46:00.524Z,100846.66
2019-06-20T13:48:29.524Z,100843.16
2019-06-20T13:51:11.880Z,100840.30
2019-06-20T13:53:42.674Z,100839.20
2019-06-20T13:56:12.754Z,100838.34
2019-06-20T13:58:42.316Z,100839.14
2019-06-20T14:01:12.161Z,100833.51
2019-06-20T14:03:43.620Z,100835.36
2019-06-20T14:06:11.997Z,100831.89
2019-06-20T14:08:42.397Z,100837.20
2019-06-20T14:11:11.535Z,100841.14
2019-06-20T14:13:41.599Z,100839.16
2019-06-20T14:16:11.101Z,100834.28
2019-06-20T14:18:42.567Z,100835.77
2019-06-20T14:21:10.576Z,100835.05
2019-06-20T14:23:41.009Z,100836.39
2019-06-20T14:26:10.233Z,100840.31
2019-06-20T14:28:39.221Z,100839.47
2019-06-20T14:31:08.078Z,100839.98
2019-06-20T14:33:36.940Z,100832.87
2019-06-20T14:36:06.010Z,100843.20
2019-06-20T14:38:34.869Z,100833.05
2019-06-20T14:41:03.811Z,100839.63
2019-06-20T14:43:32.671Z,100836.22
2019-06-20T14:46:01.674Z,100835.52
2019-06-20T14:48:30.630Z,100848.00
2019-06-20T14:50:59.672Z,100847.14
2019-06-20T14:53:28.618Z,100841.88
2019-06-20T14:55:57.536Z,100836.93
2019-06-20T14:58:26.424Z,100841.38
2019-06-20T15:00:55.600Z,100843.17
2019-06-20T15:03:24.622Z,100844.70
2019-06-20T15:05:54.649Z,100841.88
2019-06-20T15:08:24.014Z,100850.73
2019-06-20T15:10:53.997Z,100854.19
2019-06-20T15:13:23.271Z,100854.22
2019-06-20T15:15:53.395Z,100875.84
2019-06-20T15:18:23.050Z,100850.81
2019-06-20T15:20:55.656Z,100859.09
2019-06-20T15:23:22.717Z,100863.20
2019-06-20T15:25:52.106Z,100861.34
2019-06-20T15:28:21.136Z,100866.26
2019-06-20T15:30:50.869Z,100865.00
2019-06-20T15:33:24.146Z,100862.59
2019-06-20T15:35:53.514Z,100872.20
2019-06-20T15:38:23.330Z,100872.98
2019-06-20T15:40:53.384Z,100877.09
2019-06-20T15:43:23.377Z,100881.73
2019-06-20T15:45:55.755Z,100873.16
2019-06-20T15:48:25.316Z,100875.90
2019-06-20T15:50:54.177Z,100878.81
2019-06-20T15:53:23.492Z,100871.39
2019-06-20T15:55:52.445Z,100883.89
2019-06-20T15:58:21.284Z,100878.88
2019-06-20T16:00:50.137Z,100880.98
2019-06-20T16:03:18.966Z,100889.14
2019-06-20T16:05:48.038Z,100887.45
2019-06-20T16:08:17.138Z,100890.25
2019-06-20T16:10:46.230Z,100895.51
2019-06-20T16:13:15.183Z,100888.25
2019-06-20T16:15:44.018Z,100891.84
2019-06-20T16:18:13.087Z,100898.33
2019-06-20T16:20:41.958Z,100899.82
2019-06-20T16:23:10.792Z,100900.43
2019-06-20T16:25:39.667Z,100893.27
2019-06-20T16:28:08.435Z,100893.47
2019-06-20T16:30:37.280Z,100893.56
2019-06-20T16:33:06.096Z,100903.62
2019-06-20T16:35:35.205Z,100892.08
2019-06-20T16:38:04.060Z,100892.86
2019-06-20T16:40:47.531Z,100902.22
2019-06-20T16:43:16.410Z,100906.14
2019-06-20T16:45:45.825Z,100905.22
2019-06-20T16:48:14.664Z,100910.26
2019-06-20T16:50:43.521Z,100907.64
2019-06-20T16:53:12.624Z,100905.73
2019-06-20T16:55:41.578Z,100908.13
2019-06-20T16:58:13.467Z,100910.59
2019-06-20T17:00:42.680Z,100903.75
2019-06-20T17:03:11.771Z,100911.21
2019-06-20T17:05:40.834Z,100910.55
2019-06-20T17:08:09.842Z,100924.23
2019-06-20T17:10:38.767Z,100928.37
2019-06-20T17:13:09.957Z,100932.70
2019-06-20T17:15:38.869Z,100931.09
2019-06-20T17:18:09.235Z,100929.98
2019-06-20T17:20:38.073Z,100930.38
2019-06-20T17:23:06.993Z,100938.12
2019-06-20T17:25:35.853Z,100935.73
2019-06-20T17:28:05.994Z,100943.59
2019-06-20T17:30:35.142Z,100946.21
2019-06-20T17:33:07.521Z,100943.62
2019-06-20T17:35:36.571Z,100946.28
2019-06-20T17:38:05.488Z,100962.17
2019-06-20T17:40:34.396Z,100962.06
2019-06-20T17:43:03.305Z,100967.81
2019-06-20T17:45:32.414Z,100964.64
2019-06-20T17:48:02.641Z,100969.24
2019-06-20T17:50:31.672Z,100970.59
2019-06-20T17:53:00.650Z,100980.34
2019-06-20T17:55:30.261Z,100972.13
2019-06-20T17:57:59.168Z,100977.33
2019-06-20T18:00:29.035Z,100986.41
2019-06-20T18:02:59.125Z,100983.20
2019-06-20T18:05:28.429Z,100980.61
2019-06-20T18:07:57.990Z,100987.56
2019-06-20T18:10:27.528Z,100995.93
2019-06-20T18:12:56.815Z,101003.27
2019-06-20T18:15:28.296Z,100997.30
2019-06-20T18:17:57.291Z,101000.28
2019-06-20T18:20:26.409Z,101004.23
2019-06-20T18:22:55.251Z,101012.53
2019-06-20T18:25:24.283Z,101016.61
2019-06-20T18:27:55.181Z,101016.48
2019-06-20T18:30:36.599Z,101017.55
2019-06-20T18:33:10.090Z,101023.43
2019-06-20T18:35:41.693Z,101026.54
2019-06-20T18:38:17.115Z,101031.17
2019-06-20T18:40:47.864Z,101041.83
2019-06-20T18:43:18.478Z,101046.39
2019-06-20T18:45:48.258Z,101049.83
2019-06-20T18:48:18.379Z,101055.94
2019-06-20T18:51:05.301Z,101052.98
2019-06-20T18:53:43.775Z,101056.69
2019-06-20T18:56:14.554Z,101065.23
2019-06-20T18:58:43.729Z,101065.33
2019-06-20T19:01:14.019Z,101078.03
2019-06-20T19:03:43.621Z,101082.56
2019-06-20T19:06:12.650Z,101085.03
2019-06-20T19:08:41.510Z,101089.52
2019-06-20T19:11:10.456Z,101090.75
2019-06-20T19:13:44.078Z,101099.44
2019-06-20T19:16:21.141Z,101103.61
2019-06-20T19:18:50.095Z,101100.83
2019-06-20T19:21:18.942Z,101106.55
2019-06-20T19:23:48.239Z,101108.93
2019-06-20T19:26:17.480Z,101107.19
2019-06-20T19:28:46.254Z,101116.61
2019-06-20T19:31:15.115Z,101131.57
2019-06-20T19:33:44.007Z,101119.14
2019-06-20T19:36:12.949Z,101115.90
2019-06-20T19:38:42.871Z,101114.41
2019-06-20T19:41:11.851Z,101119.73
2019-06-20T19:43:40.748Z,101123.99
2019-06-20T19:46:21.673Z,101127.66
2019-06-20T19:48:57.594Z,101127.84
2019-06-20T19:51:26.853Z,101134.27
2019-06-20T19:53:55.722Z,101125.14
2019-06-20T19:56:26.133Z,101130.20
2019-06-20T19:58:55.133Z,101135.79
2019-06-20T20:01:24.006Z,101134.19
2019-06-20T20:03:55.963Z,101142.28
2019-06-20T20:06:24.730Z,101142.66
2019-06-20T20:08:53.545Z,101152.42
2019-06-20T20:11:22.349Z,101145.17
2019-06-20T20:13:51.152Z,101149.95
2019-06-20T20:16:19.954Z,101160.30
2019-06-20T20:18:48.742Z,101162.55
2019-06-20T20:21:19.803Z,101156.51
2019-06-20T20:23:48.637Z,101150.16
2019-06-20T20:26:17.435Z,101149.06
2019-06-20T20:28:46.482Z,101146.30
2019-06-20T20:31:15.244Z,101142.37
2019-06-20T20:33:43.991Z,101148.32
2019-06-20T20:36:24.498Z,101154.09
2019-06-20T20:38:44.173Z,101154.20
2019-06-20T20:41:13.842Z,101149.80
2019-06-20T20:43:42.573Z,101156.20
2019-06-20T20:46:11.344Z,101173.16
2019-06-20T20:48:40.198Z,101166.61
2019-06-20T20:51:09.264Z,101174.53
2019-06-20T20:53:38.006Z,101169.12
2019-06-20T20:56:06.785Z,101183.20
2019-06-20T20:58:35.543Z,101198.79
2019-06-20T21:01:16.474Z,101191.72
2019-06-20T21:03:52.855Z,101173.49
2019-06-20T21:06:22.035Z,101184.39
2019-06-20T21:08:50.811Z,101192.59
2019-06-20T21:11:22.063Z,101195.58
2019-06-20T21:13:51.709Z,101191.41
2019-06-20T21:16:21.323Z,101198.69
2019-06-20T21:18:51.685Z,101204.88
2019-06-20T21:21:24.926Z,101205.39
2019-06-20T21:23:56.276Z,101206.78
2019-06-20T21:26:29.752Z,101209.36
2019-06-20T21:28:58.604Z,101171.28
2019-06-20T21:31:28.250Z,101204.38
2019-06-20T21:33:57.072Z,101203.05
2019-06-20T21:36:25.810Z,101209.97
2019-06-20T21:38:54.570Z,101211.31
2019-06-20T21:41:23.350Z,101210.75
2019-06-20T21:43:52.113Z,101218.09
2019-06-20T21:46:20.771Z,101224.67
2019-06-20T21:48:49.687Z,101226.11
2019-06-20T21:51:18.411Z,101231.84
2019-06-20T21:53:47.158Z,101236.20
2019-06-20T21:56:16.010Z,101241.12
2019-06-20T21:58:45.165Z,101244.64
2019-06-20T22:01:15.733Z,101241.09
2019-06-20T22:03:44.607Z,101240.03
2019-06-20T22:06:23.221Z,101246.54
2019-06-20T22:08:43.907Z,101246.30
2019-06-20T22:11:12.670Z,101250.14
2019-06-20T22:13:43.029Z,101254.01
2019-06-20T22:16:11.868Z,101253.20
2019-06-20T22:18:40.635Z,101249.34
2019-06-20T22:21:09.299Z,101251.52
2019-06-20T22:23:38.045Z,101250.95
2019-06-20T22:26:06.797Z,101258.32
2019-06-20T22:28:35.523Z,101252.06
2019-06-20T22:31:05.427Z,101249.91
2019-06-20T22:33:34.154Z,101265.47
2019-06-20T22:36:03.007Z,101246.95
2019-06-20T22:38:31.781Z,101253.19
2019-06-20T22:41:00.559Z,101244.69
2019-06-20T22:43:29.353Z,101253.95
2019-06-20T22:45:58.091Z,101250.11
2019-06-20T22:48:26.814Z,101252.83
2019-06-20T22:50:55.574Z,101254.43
2019-06-20T22:53:24.409Z,101253.88
2019-06-20T22:55:53.200Z,101254.19
2019-06-20T22:58:21.926Z,101259.37
2019-06-20T23:00:50.707Z,101266.72
2019-06-20T23:03:19.454Z,101266.45
2019-06-20T23:05:48.215Z,101266.97
2019-06-20T23:08:17.003Z,101267.52
2019-06-20T23:10:45.819Z,101192.18
2019-06-20T23:13:14.630Z,101262.38
2019-06-20T23:15:43.375Z,101265.67
2019-06-20T23:18:12.112Z,101266.47
2019-06-20T23:20:40.977Z,101267.33
2019-06-20T23:23:09.751Z,101273.63
2019-06-20T23:25:40.131Z,101272.25
2019-06-20T23:28:08.857Z,101274.23
2019-06-20T23:30:37.608Z,101269.58
2019-06-20T23:33:09.431Z,101269.61
2019-06-20T23:35:38.282Z,101271.00
2019-06-20T23:38:07.033Z,101262.12
2019-06-20T23:40:35.835Z,101262.12
2019-06-20T23:43:05.218Z,101273.59
2019-06-20T23:45:34.008Z,101248.58
2019-06-20T23:48:02.879Z,101278.52
2019-06-20T23:50:31.575Z,101278.28
2019-06-20T23:53:07.989Z,101280.75
2019-06-20T23:55:36.825Z,101289.19
2019-06-20T23:58:05.621Z,101289.48
